createdAt,value
2022-10-30T00:02:42.014Z,51.42
2022-10-30T00:07:44.275Z,51.47
2022-10-30T00:12:46.052Z,51.67
2022-10-30T00:17:47.973Z,51.50
2022-10-30T00:22:49.875Z,51.30
2022-10-30T00:27:51.785Z,51.83
2022-10-30T00:32:53.715Z,51.22
2022-10-30T00:37:56.262Z,51.23
2022-10-30T00:42:58.508Z,51.32
2022-10-30T00:48:03.636Z,51.31
2022-10-30T00:53:09.304Z,51.46
2022-10-30T00:58:16.269Z,51.26
2022-10-30T01:03:20.821Z,51.63
2022-10-30T01:08:22.873Z,51.44
2022-10-30T01:13:25.451Z,51.19
2022-10-30T01:18:35.171Z,51.53
2022-10-30T01:24:14.941Z,51.30
2022-10-30T01:29:38.678Z,51.32
2022-10-30T01:34:50.898Z,51.26
2022-10-30T01:39:53.885Z,51.36
2022-10-30T01:44:55.827Z,51.41
2022-10-30T01:50:15.560Z,51.40
2022-10-30T01:55:30.438Z,51.47
2022-10-30T02:00:32.446Z,51.34
2022-10-30T02:05:44.383Z,51.03
2022-10-30T02:10:48.514Z,51.16
2022-10-30T02:15:50.709Z,51.14
2022-10-30T02:20:52.627Z,50.97
2022-10-30T02:25:54.512Z,50.96
2022-10-30T02:30:56.285Z,51.27
2022-10-30T02:35:58.028Z,50.91
2022-10-30T02:41:00.061Z,51.16
2022-10-30T02:46:01.913Z,51.03
2022-10-30T02:51:05.105Z,51.02
2022-10-30T02:56:12.807Z,51.05
2022-10-30T03:01:18.172Z,51.03
2022-10-30T03:06:20.134Z,51.12
2022-10-30T03:11:21.939Z,51.24
2022-10-30T03:16:25.636Z,51.04
2022-10-30T03:21:28.694Z,50.63
2022-10-30T03:26:30.681Z,51.04
2022-10-30T03:31:32.878Z,50.81
2022-10-30T03:36:34.742Z,51.09
2022-10-30T03:41:36.495Z,51.00
2022-10-30T03:46:38.635Z,50.96
2022-10-30T03:51:40.505Z,51.06
2022-10-30T03:56:42.377Z,51.11
2022-10-30T04:01:44.318Z,50.83
2022-10-30T04:06:48.330Z,50.94
2022-10-30T04:11:50.219Z,50.65
2022-10-30T04:16:52.235Z,50.59
2022-10-30T04:21:54.053Z,50.85
2022-10-30T04:26:56.102Z,50.67
2022-10-30T04:31:58.000Z,50.70
2022-10-30T04:36:59.832Z,50.58
2022-10-30T04:42:02.352Z,50.88
2022-10-30T04:47:04.259Z,50.80
2022-10-30T04:52:06.112Z,50.72
2022-10-30T04:57:08.025Z,50.75
2022-10-30T05:02:10.652Z,50.92
2022-10-30T05:07:13.688Z,50.95
2022-10-30T05:12:16.889Z,51.00
2022-10-30T05:17:18.898Z,50.56
2022-10-30T05:22:20.811Z,50.88
2022-10-30T05:27:22.652Z,50.76
2022-10-30T05:32:24.632Z,50.82
2022-10-30T05:37:26.429Z,50.86
2022-10-30T05:42:28.170Z,50.78
2022-10-30T05:47:30.021Z,50.58
2022-10-30T05:52:31.840Z,50.80
2022-10-30T05:57:33.899Z,50.92
2022-10-30T06:02:35.718Z,50.79
2022-10-30T06:07:37.481Z,50.98
2022-10-30T06:12:39.205Z,50.66
2022-10-30T06:17:41.237Z,50.52
2022-10-30T06:22:43.308Z,50.66
2022-10-30T06:27:45.244Z,50.64
2022-10-30T06:32:47.140Z,50.66
2022-10-30T06:37:49.714Z,50.68
2022-10-30T06:42:53.009Z,50.32
2022-10-30T06:47:54.844Z,50.99
2022-10-30T06:52:56.717Z,50.75
2022-10-30T06:57:59.084Z,50.64
2022-10-30T07:03:02.959Z,49.88
2022-10-30T07:08:05.197Z,49.87
2022-10-30T07:13:06.840Z,49.98
2022-10-30T07:18:10.696Z,50.11
2022-10-30T07:23:12.478Z,50.69
2022-10-30T07:28:14.475Z,50.82
2022-10-30T07:33:16.431Z,50.36
2022-10-30T07:38:18.388Z,50.53
2022-10-30T07:43:20.234Z,50.07
2022-10-30T07:48:21.835Z,48.28
2022-10-30T07:53:23.590Z,47.89
2022-10-30T07:58:25.587Z,46.92
2022-10-30T08:03:27.372Z,46.69
2022-10-30T08:08:29.399Z,47.29
2022-10-30T08:13:31.318Z,46.59
2022-10-30T08:18:33.479Z,46.04
2022-10-30T08:23:35.774Z,45.56
2022-10-30T08:28:37.896Z,45.59
2022-10-30T08:33:40.429Z,45.63
2022-10-30T08:38:42.321Z,45.99
2022-10-30T08:43:44.121Z,46.20
2022-10-30T08:48:45.939Z,46.47
2022-10-30T08:53:50.738Z,46.74
2022-10-30T08:58:52.583Z,46.97
2022-10-30T09:03:54.370Z,47.41
2022-10-30T09:08:56.223Z,47.28
2022-10-30T09:13:58.015Z,47.95
2022-10-30T09:18:59.873Z,47.81
2022-10-30T09:24:01.851Z,47.86
2022-10-30T09:29:03.772Z,47.81
2022-10-30T09:34:05.755Z,47.95
2022-10-30T09:39:17.381Z,48.09
2022-10-30T09:45:23.307Z,47.72
2022-10-30T09:51:04.165Z,47.47
2022-10-30T09:56:15.663Z,47.42
2022-10-30T10:01:29.237Z,47.74
2022-10-30T10:06:34.694Z,47.75
2022-10-30T10:11:38.524Z,47.58
2022-10-30T10:16:42.973Z,47.80
2022-10-30T10:21:49.582Z,47.46
2022-10-30T10:27:15.568Z,47.70
2022-10-30T10:32:40.167Z,47.69
2022-10-30T10:38:19.345Z,47.37
2022-10-30T10:44:01.159Z,47.50
2022-10-30T10:49:15.032Z,47.35
2022-10-30T10:54:25.327Z,47.31
2022-10-30T10:59:38.835Z,47.09
2022-10-30T11:04:54.265Z,47.16
2022-10-30T11:09:58.006Z,46.89
2022-10-30T11:15:03.592Z,47.00
2022-10-30T11:20:29.832Z,47.49
2022-10-30T11:25:36.730Z,47.43
2022-10-30T11:30:38.397Z,46.26
2022-10-30T11:35:43.524Z,46.97
2022-10-30T11:40:51.887Z,47.12
2022-10-30T11:45:54.341Z,47.36
2022-10-30T11:51:00.258Z,47.28
2022-10-30T11:56:04.348Z,47.10
2022-10-30T12:01:26.295Z,47.29
2022-10-30T12:06:30.172Z,47.30
2022-10-30T12:11:34.663Z,47.46
2022-10-30T12:16:36.467Z,47.05
2022-10-30T12:21:41.394Z,47.33
2022-10-30T12:26:51.541Z,47.25
2022-10-30T12:31:58.708Z,47.35
2022-10-30T12:37:08.984Z,47.54
2022-10-30T12:42:19.004Z,47.16
2022-10-30T12:47:44.299Z,46.61
2022-10-30T12:52:59.986Z,46.85
2022-10-30T12:58:34.507Z,47.23
2022-10-30T13:03:43.377Z,47.22
2022-10-30T13:08:53.158Z,47.32
2022-10-30T13:13:58.470Z,47.26
2022-10-30T13:19:01.988Z,47.43
2022-10-30T13:24:11.847Z,47.46
2022-10-30T13:29:19.645Z,47.03
2022-10-30T13:34:49.262Z,46.85
2022-10-30T13:39:57.251Z,47.24
2022-10-30T13:45:23.604Z,46.98
2022-10-30T13:50:28.392Z,46.78
2022-10-30T13:55:32.954Z,46.74
2022-10-30T14:00:34.758Z,46.46
2022-10-30T14:05:42.627Z,46.66
2022-10-30T14:10:46.417Z,46.43
2022-10-30T14:15:48.402Z,46.36
2022-10-30T14:20:52.045Z,46.19
2022-10-30T14:26:05.764Z,45.80
2022-10-30T14:31:11.263Z,45.95
2022-10-30T14:36:16.890Z,46.05
2022-10-30T14:41:25.627Z,45.98
2022-10-30T14:46:37.884Z,46.13
2022-10-30T14:51:54.075Z,46.28
2022-10-30T14:56:56.011Z,45.86
2022-10-30T15:02:13.113Z,46.24
2022-10-30T15:07:17.804Z,45.89
2022-10-30T15:12:34.637Z,45.72
2022-10-30T15:17:58.565Z,45.68
2022-10-30T15:23:04.845Z,45.49
2022-10-30T15:28:13.902Z,45.68
2022-10-30T15:33:22.662Z,45.55
2022-10-30T15:38:24.909Z,45.42
2022-10-30T15:43:31.793Z,45.54
2022-10-30T15:48:35.479Z,45.44
2022-10-30T15:53:45.675Z,45.39
2022-10-30T15:58:54.580Z,45.22
2022-10-30T16:03:56.439Z,45.27
2022-10-30T16:08:58.745Z,45.50
2022-10-30T16:14:08.034Z,45.36
2022-10-30T16:19:28.010Z,45.52
2022-10-30T16:24:35.874Z,45.19
2022-10-30T16:29:38.019Z,45.04
2022-10-30T16:34:40.699Z,45.15
2022-10-30T16:39:43.680Z,45.13
2022-10-30T16:44:46.492Z,45.02
2022-10-30T16:49:59.106Z,45.02
2022-10-30T16:55:13.042Z,45.44
2022-10-30T17:00:27.412Z,46.68
2022-10-30T17:05:31.884Z,46.30
2022-10-30T17:10:33.750Z,46.33
2022-10-30T17:15:35.486Z,47.00
2022-10-30T17:20:37.645Z,46.27
2022-10-30T17:25:40.376Z,46.84
2022-10-30T17:30:43.333Z,46.25
2022-10-30T17:35:45.475Z,46.64
2022-10-30T17:40:47.621Z,46.53
2022-10-30T17:45:49.419Z,46.41
2022-10-30T17:50:51.682Z,46.74
2022-10-30T17:56:16.606Z,46.46
2022-10-30T18:01:22.408Z,46.75
2022-10-30T18:06:27.011Z,46.69
2022-10-30T18:11:29.201Z,46.93
2022-10-30T18:16:31.615Z,46.61
2022-10-30T18:21:33.440Z,46.88
2022-10-30T18:26:40.049Z,46.83
2022-10-30T18:31:42.089Z,47.31
2022-10-30T18:36:44.287Z,47.45
2022-10-30T18:41:47.426Z,47.65
2022-10-30T18:46:49.487Z,47.75
2022-10-30T18:51:51.383Z,48.04
2022-10-30T18:56:53.581Z,47.89
2022-10-30T19:01:55.395Z,47.92
2022-10-30T19:06:57.275Z,47.98
2022-10-30T19:11:59.229Z,48.15
2022-10-30T19:17:01.280Z,47.57
2022-10-30T19:22:03.264Z,47.63
2022-10-30T19:27:05.078Z,47.90
2022-10-30T19:32:07.009Z,48.17
2022-10-30T19:37:09.625Z,47.93
2022-10-30T19:42:12.116Z,48.12
2022-10-30T19:47:14.192Z,48.24
2022-10-30T19:52:16.303Z,48.23
2022-10-30T20:02:39.991Z,47.95
2022-10-30T20:07:42.662Z,47.99
2022-10-30T20:12:44.573Z,48.39
2022-10-30T20:17:47.680Z,48.09
2022-10-30T20:22:49.476Z,48.24
2022-10-30T20:28:06.631Z,48.03
2022-10-30T20:33:13.100Z,48.35
2022-10-30T20:38:20.802Z,48.25
2022-10-30T20:43:29.554Z,48.12
2022-10-30T20:48:32.617Z,47.95
2022-10-30T20:53:34.728Z,48.17
2022-10-30T20:58:36.604Z,48.26
2022-10-30T21:03:38.531Z,48.00
2022-10-30T21:08:40.473Z,48.13
2022-10-30T21:13:42.370Z,47.86
2022-10-30T21:18:44.488Z,47.99
2022-10-30T21:23:46.694Z,48.23
2022-10-30T21:28:48.398Z,47.73
2022-10-30T21:33:50.237Z,48.28
2022-10-30T21:38:52.437Z,48.31
2022-10-30T21:43:56.553Z,48.20
2022-10-30T21:49:04.479Z,48.07
2022-10-30T21:54:06.413Z,48.02
2022-10-30T21:59:10.551Z,48.33
2022-10-30T22:04:12.784Z,48.52
2022-10-30T22:09:18.095Z,48.58
2022-10-30T22:14:20.204Z,48.55
2022-10-30T22:19:22.096Z,48.30
2022-10-30T22:24:24.205Z,48.46
2022-10-30T22:29:25.967Z,48.40
2022-10-30T22:34:27.970Z,48.41
2022-10-30T22:39:29.917Z,48.58
2022-10-30T22:44:31.987Z,48.51
2022-10-30T22:49:33.816Z,48.62
2022-10-30T22:54:35.679Z,48.31
2022-10-30T22:59:37.525Z,48.38
2022-10-30T23:04:39.438Z,48.30
2022-10-30T23:09:41.284Z,48.41
2022-10-30T23:14:43.159Z,48.43
2022-10-30T23:19:45.269Z,48.08
2022-10-30T23:24:48.731Z,48.24
2022-10-30T23:29:50.610Z,48.58
2022-10-30T23:34:52.485Z,48.67
2022-10-30T23:39:54.698Z,48.79
2022-10-30T23:44:56.581Z,48.52
2022-10-30T23:49:59.911Z,48.57
2022-10-30T23:55:01.898Z,48.67
